createdAt,value
2023-04-17T00:02:01.548Z,14.27
2023-04-17T00:07:03.781Z,15.68
2023-04-17T00:12:06.034Z,12.50
2023-04-17T00:17:07.896Z,13.77
2023-04-17T00:22:09.761Z,11.77
2023-04-17T00:27:11.593Z,11.13
2023-04-17T00:32:13.472Z,12.82
2023-04-17T00:37:15.230Z,12.90
2023-04-17T00:42:17.282Z,14.38
2023-04-17T00:47:22.285Z,17.63
2023-04-17T00:52:32.055Z,15.75
2023-04-17T00:57:34.422Z,15.23
2023-04-17T01:02:37.104Z,14.48
2023-04-17T01:07:39.879Z,13.70
2023-04-17T01:12:46.353Z,18.13
2023-04-17T01:17:48.214Z,17.65
2023-04-17T01:22:49.966Z,19.85
2023-04-17T01:27:51.793Z,17.25
2023-04-17T01:32:55.217Z,16.08
2023-04-17T01:37:57.040Z,13.05
2023-04-17T01:42:58.769Z,18.00
2023-04-17T01:48:01.298Z,20.02
2023-04-17T01:53:03.058Z,16.88
2023-04-17T01:58:04.870Z,20.65
2023-04-17T02:03:06.912Z,17.52
2023-04-17T02:08:08.948Z,13.57
2023-04-17T02:13:11.338Z,15.50
2023-04-17T02:18:16.475Z,15.90
2023-04-17T02:23:18.266Z,16.48
2023-04-17T02:28:20.176Z,19.58
2023-04-17T02:33:22.024Z,19.15
2023-04-17T02:38:24.627Z,15.98
2023-04-17T02:43:26.353Z,14.40
2023-04-17T02:48:28.412Z,16.40
2023-04-17T02:53:30.617Z,15.27
2023-04-17T02:58:32.388Z,14.13
2023-04-17T03:03:35.196Z,12.02
2023-04-17T03:08:39.642Z,10.65
2023-04-17T03:13:41.888Z,12.68
2023-04-17T03:18:43.618Z,11.32
2023-04-17T03:23:45.371Z,13.43
2023-04-17T03:28:47.905Z,11.32
2023-04-17T03:33:50.018Z,14.50
2023-04-17T03:38:52.485Z,9.18
2023-04-17T03:43:54.278Z,9.27
2023-04-17T03:48:55.984Z,8.90
2023-04-17T03:53:58.257Z,9.32
2023-04-17T03:59:00.160Z,9.52
2023-04-17T04:04:02.925Z,8.75
2023-04-17T04:09:05.806Z,12.63
2023-04-17T04:14:07.730Z,11.70
2023-04-17T04:19:09.850Z,11.85
2023-04-17T04:24:14.081Z,15.65
2023-04-17T04:29:17.995Z,19.35
2023-04-17T04:34:29.913Z,16.52
2023-04-17T04:39:31.715Z,19.00
2023-04-17T04:44:34.227Z,15.70
2023-04-17T04:49:36.007Z,17.60
2023-04-17T04:54:37.923Z,18.73
2023-04-17T04:59:39.782Z,19.20
2023-04-17T05:05:00.098Z,18.40
2023-04-17T05:10:03.206Z,19.35
2023-04-17T05:15:09.978Z,14.48
2023-04-17T05:20:15.353Z,15.52
2023-04-17T05:25:25.184Z,17.70
2023-04-17T05:30:29.060Z,16.17
2023-04-17T05:35:42.879Z,19.13
2023-04-17T05:40:44.953Z,11.80
2023-04-17T05:45:47.588Z,17.15
2023-04-17T05:50:49.454Z,16.05
2023-04-17T05:55:51.154Z,16.73
2023-04-17T06:00:54.544Z,14.95
2023-04-17T06:05:57.140Z,14.18
2023-04-17T06:10:59.867Z,12.27
2023-04-17T06:16:02.264Z,14.40
2023-04-17T06:21:05.230Z,13.50
2023-04-17T06:26:07.023Z,13.05
2023-04-17T06:31:09.915Z,12.43
2023-04-17T06:36:12.008Z,12.80
2023-04-17T06:41:24.768Z,13.65
2023-04-17T06:46:28.464Z,11.50
2023-04-17T06:51:30.236Z,12.13
2023-04-17T06:56:31.999Z,11.73
2023-04-17T07:01:35.031Z,11.85
2023-04-17T07:06:38.135Z,11.07
2023-04-17T07:11:39.842Z,12.20
2023-04-17T07:16:41.575Z,12.73
2023-04-17T07:21:43.258Z,13.60
2023-04-17T07:26:45.112Z,12.07
2023-04-17T07:31:46.854Z,12.25
2023-04-17T07:36:50.226Z,11.15
2023-04-17T07:41:51.909Z,12.07
2023-04-17T07:46:53.683Z,11.85
2023-04-17T07:51:55.546Z,10.98
2023-04-17T07:56:58.258Z,12.05
2023-04-17T08:02:00.375Z,12.82
2023-04-17T08:07:02.159Z,11.73
2023-04-17T08:12:04.383Z,14.27
2023-04-17T08:17:07.598Z,11.25
2023-04-17T08:22:09.762Z,12.63
2023-04-17T08:27:13.718Z,9.57
2023-04-17T08:32:15.888Z,12.80
2023-04-17T08:37:17.635Z,9.63
2023-04-17T08:42:19.396Z,10.00
2023-04-17T08:47:21.306Z,10.25
2023-04-17T08:52:23.069Z,10.02
2023-04-17T08:57:24.870Z,10.07
2023-04-17T09:02:27.772Z,9.65
2023-04-17T09:07:30.695Z,8.73
2023-04-17T09:12:32.391Z,8.93
2023-04-17T09:17:37.447Z,8.60
2023-04-17T09:22:40.953Z,9.35
2023-04-17T09:27:42.818Z,7.80
2023-04-17T09:32:44.687Z,7.72
2023-04-17T09:37:51.670Z,7.07
2023-04-17T09:43:01.385Z,6.63
2023-04-17T09:48:07.066Z,6.57
2023-04-17T09:53:09.403Z,5.78
2023-04-17T09:58:11.609Z,6.95
2023-04-17T10:03:15.385Z,5.95
2023-04-17T10:08:17.667Z,6.77
2023-04-17T10:13:21.328Z,6.60
2023-04-17T10:18:24.821Z,6.30
2023-04-17T10:23:29.724Z,5.65
2023-04-17T10:28:49.223Z,5.40
2023-04-17T10:33:54.659Z,4.38
2023-04-17T10:39:16.053Z,3.30
2023-04-17T10:44:18.549Z,3.78
2023-04-17T10:49:23.442Z,3.90
2023-04-17T10:54:25.208Z,5.30
2023-04-17T10:59:30.057Z,3.50
2023-04-17T11:04:33.845Z,6.97
2023-04-17T11:09:36.161Z,2.90
2023-04-17T11:14:40.848Z,2.25
2023-04-17T11:19:43.110Z,2.13
2023-04-17T11:24:45.795Z,3.00
2023-04-17T11:29:47.515Z,2.10
2023-04-17T11:34:49.229Z,2.05
2023-04-17T11:39:51.015Z,2.33
2023-04-17T11:44:52.699Z,1.60
2023-04-17T11:49:54.433Z,1.60
2023-04-17T11:54:59.350Z,1.48
2023-04-17T12:00:12.595Z,3.15
2023-04-17T12:05:15.942Z,1.52
2023-04-17T12:10:18.243Z,1.88
2023-04-17T12:15:19.948Z,4.03
2023-04-17T12:20:22.019Z,1.42
2023-04-17T12:25:24.033Z,1.50
2023-04-17T12:30:26.903Z,2.58
2023-04-17T12:35:28.820Z,1.83
2023-04-17T12:40:30.810Z,1.45
2023-04-17T12:45:33.585Z,1.67
2023-04-17T12:50:42.263Z,1.58
2023-04-17T12:55:44.373Z,1.17
2023-04-17T13:00:46.378Z,1.30
2023-04-17T13:05:53.133Z,2.70
2023-04-17T13:10:56.230Z,1.08
2023-04-17T13:15:58.660Z,1.23
2023-04-17T13:21:00.357Z,1.30
2023-04-17T13:26:02.045Z,1.67
2023-04-17T13:31:04.076Z,1.50
2023-04-17T13:36:07.455Z,1.85
2023-04-17T13:41:09.433Z,1.67
2023-04-17T13:46:15.874Z,1.95
2023-04-17T13:51:17.943Z,1.80
2023-04-17T13:56:23.328Z,2.08
2023-04-17T14:01:25.169Z,3.95
2023-04-17T14:06:31.601Z,3.17
2023-04-17T14:11:33.304Z,5.53
2023-04-17T14:16:35.593Z,6.07
2023-04-17T14:21:37.292Z,5.78
2023-04-17T14:26:39.134Z,9.23
2023-04-17T14:31:40.908Z,10.40
2023-04-17T14:36:43.528Z,11.60
2023-04-17T14:41:45.648Z,11.90
2023-04-17T14:46:47.784Z,12.77
2023-04-17T14:51:49.498Z,12.13
2023-04-17T14:56:51.268Z,11.98
2023-04-17T15:01:53.057Z,12.80
2023-04-17T15:06:54.811Z,10.45
2023-04-17T15:11:56.818Z,14.40
2023-04-17T15:17:01.354Z,11.80
2023-04-17T15:22:03.179Z,12.30
2023-04-17T15:27:05.114Z,14.73
2023-04-17T15:32:07.137Z,12.95
2023-04-17T15:37:10.338Z,12.63
2023-04-17T15:42:12.526Z,12.35
2023-04-17T15:47:14.605Z,12.98
2023-04-17T15:52:16.527Z,11.93
2023-04-17T15:57:18.273Z,13.48
2023-04-17T16:02:20.373Z,14.02
2023-04-17T16:07:23.857Z,15.48
2023-04-17T16:12:27.887Z,10.57
2023-04-17T16:17:29.734Z,12.27
2023-04-17T16:22:31.533Z,12.93
2023-04-17T16:27:33.654Z,13.95
2023-04-17T16:32:35.535Z,12.68
2023-04-17T16:37:37.713Z,15.07
2023-04-17T16:42:41.056Z,11.95
2023-04-17T16:47:42.869Z,12.07
2023-04-17T16:52:44.653Z,15.10
2023-04-17T16:57:47.839Z,13.38
2023-04-17T17:02:49.671Z,14.88
2023-04-17T17:07:51.406Z,13.40
2023-04-17T17:12:53.136Z,12.23
2023-04-17T17:17:54.955Z,12.48
2023-04-17T17:22:56.690Z,19.10
2023-04-17T17:27:58.378Z,11.52
2023-04-17T17:33:00.384Z,12.52
2023-04-17T17:38:02.206Z,14.15
2023-04-17T17:43:04.086Z,12.13
2023-04-17T17:48:06.588Z,13.32
2023-04-17T17:53:09.409Z,11.75
2023-04-17T17:58:11.383Z,11.65
2023-04-17T18:03:15.899Z,11.13
2023-04-17T18:08:17.954Z,15.45
2023-04-17T18:13:19.800Z,14.20
2023-04-17T18:18:21.564Z,14.70
2023-04-17T18:23:23.281Z,12.80
2023-04-17T18:28:25.841Z,11.95
2023-04-17T18:33:28.748Z,12.48
2023-04-17T18:38:30.999Z,14.18
2023-04-17T18:43:32.724Z,14.23
2023-04-17T18:48:34.723Z,16.30
2023-04-17T18:53:36.798Z,15.75
2023-04-17T18:58:40.178Z,13.45
2023-04-17T19:03:41.943Z,13.93
2023-04-17T19:08:43.607Z,14.65
2023-04-17T19:13:45.284Z,13.00
2023-04-17T19:18:47.157Z,11.63
2023-04-17T19:23:49.577Z,14.43
2023-04-17T19:28:51.260Z,10.80
2023-04-17T19:33:56.057Z,11.95
2023-04-17T19:38:59.844Z,12.68
2023-04-17T19:44:01.710Z,17.02
2023-04-17T19:49:03.508Z,13.32
2023-04-17T19:54:05.523Z,17.45
2023-04-17T19:59:07.783Z,14.88
2023-04-17T20:04:10.076Z,17.08
2023-04-17T20:09:14.436Z,15.52
2023-04-17T20:14:19.386Z,15.45
2023-04-17T20:19:21.215Z,12.82
2023-04-17T20:24:22.959Z,15.82
2023-04-17T20:29:24.851Z,13.18
2023-04-17T20:34:26.925Z,12.63
2023-04-17T20:39:29.508Z,12.38
2023-04-17T20:44:32.432Z,15.95
2023-04-17T20:49:34.297Z,11.05
2023-04-17T20:54:35.990Z,11.88
2023-04-17T20:59:37.672Z,10.48
2023-04-17T21:04:39.575Z,10.75
2023-04-17T21:09:41.397Z,12.73
2023-04-17T21:14:43.335Z,17.15
2023-04-17T21:19:46.115Z,15.13
2023-04-17T21:24:47.784Z,13.57
2023-04-17T21:29:49.480Z,15.05
2023-04-17T21:34:51.176Z,12.70
2023-04-17T21:39:52.987Z,14.50
2023-04-17T21:44:54.749Z,16.27
2023-04-17T21:49:56.563Z,19.35
2023-04-17T21:55:03.069Z,17.58
2023-04-17T22:00:06.375Z,21.40
2023-04-17T22:05:08.891Z,23.13
2023-04-17T22:10:11.903Z,22.63
2023-04-17T22:15:13.708Z,19.08
2023-04-17T22:20:15.732Z,23.92
2023-04-17T22:25:17.798Z,21.90
2023-04-17T22:30:19.630Z,17.92
2023-04-17T22:35:21.459Z,16.15
2023-04-17T22:40:23.219Z,19.77
2023-04-17T22:45:24.867Z,18.75
2023-04-17T22:50:30.510Z,15.00
2023-04-17T22:55:32.608Z,14.52
2023-04-17T23:00:34.455Z,13.88
2023-04-17T23:05:36.331Z,15.18
2023-04-17T23:10:38.029Z,13.85
2023-04-17T23:15:39.749Z,11.55
2023-04-17T23:20:41.852Z,12.18
2023-04-17T23:25:43.966Z,13.63
2023-04-17T23:30:45.697Z,11.85
2023-04-17T23:35:47.406Z,11.98
2023-04-17T23:40:49.055Z,11.55
2023-04-17T23:45:50.778Z,14.23
2023-04-17T23:50:52.509Z,10.18
2023-04-17T23:55:54.339Z,14.93
